createdAt,value
2022-12-18T00:00:11.604Z,5.50
2022-12-18T00:05:18.501Z,8.55
2022-12-18T00:10:24.680Z,5.85
2022-12-18T00:15:29.978Z,6.10
2022-12-18T00:20:35.262Z,5.80
2022-12-18T00:25:39.125Z,6.22
2022-12-18T00:30:44.327Z,6.10
2022-12-18T00:35:48.189Z,6.32
2022-12-18T00:40:52.126Z,6.10
2022-12-18T00:45:57.747Z,6.13
2022-12-18T00:51:03.166Z,6.53
2022-12-18T00:56:07.773Z,6.20
2022-12-18T01:01:13.064Z,6.80
2022-12-18T01:06:17.760Z,6.57
2022-12-18T01:11:22.695Z,6.78
2022-12-18T01:16:28.000Z,6.90
2022-12-18T01:21:31.894Z,7.90
2022-12-18T01:26:40.223Z,10.95
2022-12-18T01:31:46.086Z,13.82
2022-12-18T01:36:50.053Z,12.15
2022-12-18T01:42:06.161Z,10.43
2022-12-18T01:47:11.792Z,10.13
2022-12-18T01:52:15.988Z,9.82
2022-12-18T01:57:19.932Z,8.85
2022-12-18T02:02:25.379Z,10.05
2022-12-18T02:12:43.001Z,10.98
2022-12-18T02:17:52.742Z,9.30
2022-12-18T02:23:08.790Z,12.50
2022-12-18T02:28:17.767Z,9.50
2022-12-18T02:33:23.457Z,12.85
2022-12-18T02:38:30.045Z,15.73
2022-12-18T02:43:39.133Z,15.73
2022-12-18T02:48:44.506Z,15.18
2022-12-18T02:53:56.230Z,16.50
2022-12-18T02:59:04.628Z,16.48
2022-12-18T03:04:16.971Z,16.92
2022-12-18T03:09:23.753Z,16.17
2022-12-18T03:14:32.172Z,13.98
2022-12-18T03:19:38.766Z,17.10
2022-12-18T03:24:42.844Z,11.05
2022-12-18T03:29:50.500Z,16.40
2022-12-18T03:35:01.119Z,16.13
2022-12-18T03:40:09.515Z,15.88
2022-12-18T03:45:22.247Z,14.57
2022-12-18T03:50:33.752Z,17.58
2022-12-18T03:55:38.622Z,18.27
2022-12-18T04:00:46.418Z,16.52
2022-12-18T04:05:52.079Z,18.10
2022-12-18T04:10:58.329Z,13.73
2022-12-18T04:16:04.697Z,7.32
2022-12-18T04:21:09.651Z,17.45
2022-12-18T04:26:14.501Z,10.52
2022-12-18T04:31:40.043Z,18.23
2022-12-18T04:36:44.233Z,18.60
2022-12-18T04:41:48.460Z,18.73
2022-12-18T04:46:53.909Z,17.45
2022-12-18T04:51:58.374Z,17.67
2022-12-18T04:57:02.228Z,17.35
2022-12-18T05:02:07.529Z,16.27
2022-12-18T05:07:11.477Z,18.15
2022-12-18T05:12:15.372Z,17.85
2022-12-18T05:17:20.645Z,18.42
2022-12-18T05:22:24.463Z,17.92
2022-12-18T05:27:28.357Z,18.13
2022-12-18T05:32:33.637Z,18.33
2022-12-18T05:37:42.671Z,18.45
2022-12-18T05:42:47.198Z,15.45
2022-12-18T05:47:52.486Z,7.00
2022-12-18T05:52:56.498Z,7.22
2022-12-18T05:58:00.461Z,7.05
2022-12-18T06:03:05.837Z,7.75
2022-12-18T06:08:10.714Z,7.43
2022-12-18T06:13:14.526Z,11.57
2022-12-18T06:18:19.812Z,16.55
2022-12-18T06:23:23.709Z,15.13
2022-12-18T06:28:27.529Z,7.70
2022-12-18T06:33:33.177Z,7.82
2022-12-18T06:38:38.191Z,6.13
2022-12-18T06:43:42.749Z,7.05
2022-12-18T06:48:51.274Z,6.00
2022-12-18T06:53:55.184Z,5.85
2022-12-18T06:58:59.104Z,5.38
2022-12-18T07:04:04.386Z,5.47
2022-12-18T07:09:08.310Z,4.68
2022-12-18T07:14:12.194Z,5.82
2022-12-18T07:19:17.508Z,6.00
2022-12-18T07:24:21.490Z,6.40
2022-12-18T07:29:25.542Z,17.40
2022-12-18T07:34:30.871Z,21.42
2022-12-18T07:39:34.829Z,21.70
2022-12-18T07:44:38.762Z,23.65
2022-12-18T07:49:44.085Z,24.70
2022-12-18T07:54:49.990Z,24.67
2022-12-18T08:04:59.167Z,24.10
2022-12-18T08:10:03.011Z,25.60
2022-12-18T08:15:08.937Z,26.27
2022-12-18T08:20:16.014Z,25.67
2022-12-18T08:25:19.913Z,24.95
2022-12-18T08:30:23.895Z,24.20
2022-12-18T08:35:34.258Z,23.95
2022-12-18T08:40:40.346Z,23.02
2022-12-18T08:45:44.444Z,23.85
2022-12-18T08:50:57.464Z,23.13
2022-12-18T08:56:01.386Z,22.73
2022-12-18T09:01:07.608Z,20.83
2022-12-18T09:06:16.726Z,20.25
2022-12-18T09:11:23.684Z,20.17
2022-12-18T09:16:32.285Z,17.10
2022-12-18T09:21:40.239Z,19.10
2022-12-18T09:26:47.275Z,7.80
2022-12-18T09:31:51.656Z,5.75
2022-12-18T09:36:56.954Z,5.47
2022-12-18T09:42:01.076Z,5.50
2022-12-18T09:47:11.765Z,5.93
2022-12-18T09:52:21.728Z,6.55
2022-12-18T09:57:26.767Z,7.13
2022-12-18T10:02:33.109Z,8.40
2022-12-18T10:07:49.750Z,10.13
2022-12-18T10:13:04.253Z,12.68
2022-12-18T10:18:22.055Z,11.63
2022-12-18T10:23:30.749Z,15.88
2022-12-18T10:28:36.452Z,15.63
2022-12-18T10:38:45.352Z,16.88
2022-12-18T10:43:49.230Z,16.80
2022-12-18T10:48:56.170Z,15.68
2022-12-18T10:54:03.229Z,15.40
2022-12-18T10:59:10.062Z,17.50
2022-12-18T11:04:19.273Z,16.25
2022-12-18T11:09:25.920Z,16.05
2022-12-18T11:14:31.034Z,17.88
2022-12-18T11:19:36.566Z,9.40
2022-12-18T11:24:41.900Z,16.75
2022-12-18T11:29:46.843Z,16.83
2022-12-18T11:34:58.789Z,19.20
2022-12-18T11:40:09.230Z,18.02
2022-12-18T11:45:26.468Z,18.88
2022-12-18T11:50:35.678Z,18.42
2022-12-18T11:55:45.837Z,19.30
2022-12-18T12:00:56.849Z,17.92
2022-12-18T12:06:08.783Z,16.88
2022-12-18T12:11:21.340Z,19.17
2022-12-18T12:16:27.743Z,18.67
2022-12-18T12:21:38.378Z,17.55
2022-12-18T12:26:49.699Z,18.00
2022-12-18T12:32:04.474Z,17.48
2022-12-18T12:37:18.806Z,18.20
2022-12-18T12:42:47.146Z,18.25
2022-12-18T12:47:52.001Z,18.73
2022-12-18T12:52:57.818Z,18.03
2022-12-18T13:03:14.811Z,17.42
2022-12-18T13:08:26.679Z,17.70
2022-12-18T13:13:51.434Z,18.80
2022-12-18T13:18:57.971Z,20.50
2022-12-18T13:24:18.522Z,19.67
2022-12-18T13:29:46.560Z,19.00
2022-12-18T13:34:51.634Z,19.38
2022-12-18T13:39:55.615Z,19.10
2022-12-18T13:45:01.124Z,19.10
2022-12-18T13:55:18.976Z,18.70
2022-12-18T14:00:30.020Z,20.50
2022-12-18T14:05:36.222Z,20.08
2022-12-18T14:10:48.353Z,20.50
2022-12-18T14:15:55.059Z,21.58
2022-12-18T14:21:00.949Z,21.02
2022-12-18T14:26:20.305Z,20.00
2022-12-18T14:31:27.153Z,20.88
2022-12-18T14:36:31.787Z,20.05
2022-12-18T14:41:35.655Z,18.83
2022-12-18T14:46:41.875Z,19.02
2022-12-18T14:51:50.033Z,19.60
2022-12-18T14:56:58.990Z,17.67
2022-12-18T15:02:07.385Z,17.92
2022-12-18T15:07:15.106Z,19.48
2022-12-18T15:12:36.425Z,19.52
2022-12-18T15:17:41.717Z,19.20
2022-12-18T15:22:45.586Z,18.13
2022-12-18T15:27:49.910Z,18.88
2022-12-18T15:33:19.153Z,19.20
2022-12-18T15:38:23.061Z,18.77
2022-12-18T15:43:36.523Z,18.40
2022-12-18T15:48:43.090Z,20.83
2022-12-18T15:53:47.318Z,21.30
2022-12-18T15:58:51.221Z,19.20
2022-12-18T16:03:56.944Z,20.40
2022-12-18T16:09:00.986Z,20.13
2022-12-18T16:14:04.878Z,19.08
2022-12-18T16:19:10.229Z,18.00
2022-12-18T16:24:17.667Z,18.88
2022-12-18T16:29:25.792Z,19.40
2022-12-18T16:34:35.423Z,19.52
2022-12-18T16:39:40.601Z,16.73
2022-12-18T16:44:44.965Z,8.27
2022-12-18T16:49:51.950Z,17.00
2022-12-18T16:54:55.941Z,17.30
2022-12-18T17:00:04.662Z,16.88
2022-12-18T17:05:11.209Z,16.58
2022-12-18T17:10:15.791Z,17.35
2022-12-18T17:15:19.709Z,17.05
2022-12-18T17:20:25.386Z,15.40
2022-12-18T17:25:29.284Z,16.30
2022-12-18T17:30:33.178Z,16.42
2022-12-18T17:35:38.457Z,17.25
2022-12-18T17:40:46.324Z,18.58
2022-12-18T17:45:50.530Z,14.40
2022-12-18T17:50:58.197Z,17.42
2022-12-18T17:56:06.187Z,16.88
2022-12-18T18:01:18.703Z,16.58
2022-12-18T18:06:25.190Z,16.15
2022-12-18T18:11:46.681Z,15.68
2022-12-18T18:16:52.430Z,13.90
2022-12-18T18:27:01.367Z,17.48
2022-12-18T18:32:06.058Z,16.15
2022-12-18T18:37:12.378Z,13.70
2022-12-18T18:42:16.274Z,16.65
2022-12-18T18:47:20.961Z,14.88
2022-12-18T18:52:26.246Z,8.65
2022-12-18T18:57:30.625Z,14.23
2022-12-18T19:02:34.993Z,14.90
2022-12-18T19:07:40.330Z,16.58
2022-12-18T19:13:01.586Z,16.58
2022-12-18T19:18:05.999Z,16.85
2022-12-18T19:23:11.608Z,17.27
2022-12-18T19:28:21.825Z,13.80
2022-12-18T19:33:42.214Z,16.00
2022-12-18T19:38:48.676Z,16.35
2022-12-18T19:48:56.442Z,15.73
2022-12-18T19:54:02.519Z,15.68
2022-12-18T19:59:06.939Z,15.05
2022-12-18T20:04:12.688Z,17.73
2022-12-18T20:14:23.536Z,16.95
2022-12-18T20:19:28.124Z,17.15
2022-12-18T20:24:34.625Z,15.48
2022-12-18T20:29:38.526Z,15.77
2022-12-18T20:34:42.605Z,17.63
2022-12-18T20:39:48.269Z,17.58
2022-12-18T20:44:52.390Z,16.95
2022-12-18T20:49:56.510Z,17.98
2022-12-18T20:55:04.646Z,16.95
2022-12-18T21:00:11.234Z,16.35
2022-12-18T21:05:16.462Z,17.65
2022-12-18T21:10:21.805Z,16.30
2022-12-18T21:15:28.710Z,16.30
2022-12-18T21:20:33.127Z,15.85
2022-12-18T21:25:38.668Z,17.98
2022-12-18T21:30:42.540Z,16.58
2022-12-18T21:35:46.519Z,16.35
2022-12-18T21:40:51.779Z,17.20
2022-12-18T21:45:55.717Z,17.42
2022-12-18T21:51:01.301Z,16.65
2022-12-18T21:56:07.093Z,16.63
2022-12-18T22:01:11.021Z,17.27
2022-12-18T22:06:15.323Z,16.10
2022-12-18T22:11:20.565Z,19.25
2022-12-18T22:16:26.225Z,19.00
2022-12-18T22:21:31.942Z,17.10
2022-12-18T22:31:44.405Z,17.52
2022-12-18T22:36:50.339Z,18.65
2022-12-18T22:41:55.780Z,18.63
2022-12-18T22:47:06.348Z,18.15
2022-12-18T22:52:11.302Z,18.90
2022-12-18T22:57:16.561Z,20.08
2022-12-18T23:02:21.003Z,20.95
2022-12-18T23:07:25.022Z,19.63
2022-12-18T23:12:30.268Z,19.60
2022-12-18T23:17:34.430Z,19.13
2022-12-18T23:22:38.246Z,20.10
2022-12-18T23:27:43.577Z,20.33
2022-12-18T23:32:47.413Z,20.77
2022-12-18T23:37:59.814Z,20.00
2022-12-18T23:43:05.613Z,19.98
2022-12-18T23:48:09.588Z,21.25
2022-12-18T23:53:13.762Z,20.42
2022-12-18T23:58:20.678Z,20.88
